Bethania, NC

10:37 AM EDT on June 03, 2015 (GMT -0400)
Piedmont Triad International | | Change Station
CLOSE
Current Station
Airport
Location: Greensboro,
Elevation: 886 ft
Nearby Weather Stations

Elev 886 ft 36.10 °N, 79.94 °W | Updated 43 minutes ago

Overcast
Overcast
60 °F
Feels Like 60 °F
N
7
Wind Variable Wind from NNE

Today
High -- | Low -- °F
--% Chance of Precip.
Yesterday
High -- | Low -- °F
Precip. -- in
6:05 AM 8:34 PM
Full, 99% visible
Pressure 30.08 in
Visibility 1.8 miles
Clouds Overcast 500 ft
Dew Point 59 °F
Humidity 96%
Rainfall 0.01 in
Snow Depth Not available.
UV 2 out of 12
Pollen .80 out of 12
Air Quality Not available.
Flu Activity No Activity
METAR KGSO 031354Z 03006KT 1 3/4SM -DZ BR OVC005 16/15 A3009 RMK AO2 SFC VIS 2 SLP185 P0000 T01560150

More Conditions Fewer Conditions

Pressure 30.08 in
Visibility 1.8 miles
Clouds Overcast 500 ft
Dew Point 59 °F
Humidity 96%
Rainfall 0.01 in
Snow Depth Not available.
UV 2 out of 12
Pollen .80 out of 12
Air Quality Not available.
Flu Activity No Activity
METAR KGSO 031354Z 03006KT 1 3/4SM -DZ BR OVC005 16/15 A3009 RMK AO2 SFC VIS 2 SLP185 P0000 T01560150

More Conditions Fewer Conditions

10-Day Weather Forecast

×

Almanac

Astronomy

Jun. 03, 2015 Rise Set
Actual Time
Civil Twilight
Nautical Twilight
Astronomical Twilight
Moon
Length of Visible Light
Length of Day
Tomorrow will be .
, % of the Moon is Illuminated

Today's Extremes

State Highs State Lows

Community

WunderPhotos

Upload Photos

1,826,229 photos uploaded!

WunderBlogs® & News

Nearby

Air Quality

  Air Quality AQ Index Pollutant
Not available.

Snow Depth

Station Depth Elevation

Earthquake Activity

City Distance Mag. Time & Date
Minimum magnitude displayed is 2.5.

Coastal Water Temperatures

Place Temperature

Stations

Nearby Weather Stations

Station Location Temp. Windchill Dew Point Humidity Wind Precip. Elev Updated Type